Time;durP1;ratioP1;P1;durP2;ratioP2;P2;SDS_P1;SDS_P2;PMS_P1;PMS_P2;Temp;Humidity;BMP_temperature;BMP_pressure;BME280_temperature;BME280_humidity;BME280_pressure;Samples;Min_cycle;Max_cycle;Signal;HPM_P1;HPM_P2
2023/01/21 00:01:11;;;;;;;26.88;11.57;;;-0.40;99.90;;;;;;6230136;23;20935;-81
2023/01/21 00:03:37;;;;;;;23.40;10.30;;;-0.50;99.90;;;;;;6231591;22;20168;-81
2023/01/21 00:06:03;;;;;;;21.77;11.00;;;-0.60;99.90;;;;;;6234202;23;20564;-82
2023/01/21 00:08:29;;;;;;;16.00;10.68;;;-0.70;99.90;;;;;;6231948;23;20391;-83
2023/01/21 00:10:55;;;;;;;23.20;11.47;;;-0.80;99.90;;;;;;6235711;23;20303;-83
2023/01/21 00:13:21;;;;;;;18.30;11.83;;;-0.60;99.90;;;;;;6235217;23;20184;-83
2023/01/21 00:15:46;;;;;;;21.40;10.90;;;-0.70;99.90;;;;;;6235882;22;20140;-80
2023/01/21 00:18:12;;;;;;;16.90;11.23;;;-0.70;99.90;;;;;;6236449;23;20165;-85
2023/01/21 00:20:38;;;;;;;16.13;10.47;;;-0.60;99.90;;;;;;6238699;23;20153;-81
2023/01/21 00:23:03;;;;;;;17.30;11.23;;;-0.60;99.90;;;;;;6255943;22;21172;-82
2023/01/21 00:25:29;;;;;;;18.77;9.83;;;-0.70;99.90;;;;;;6233797;23;20153;-82
2023/01/21 00:27:55;;;;;;;16.83;10.47;;;-0.70;99.90;;;;;;6233527;22;20152;-81
2023/01/21 00:30:20;;;;;;;26.00;12.00;;;-0.80;99.90;;;;;;6233144;23;20153;-84
2023/01/21 00:32:46;;;;;;;20.30;11.40;;;-0.80;99.90;;;;;;6233233;22;20293;-80
2023/01/21 00:35:12;;;;;;;23.03;13.10;;;-0.80;99.90;;;;;;6234630;23;20148;-81
2023/01/21 00:37:37;;;;;;;19.90;10.60;;;-0.70;99.90;;;;;;6237153;22;20145;-81
2023/01/21 00:40:04;;;;;;;12.73;9.27;;;-0.70;99.90;;;;;;6236944;23;20733;-82
2023/01/21 00:42:30;;;;;;;14.50;9.93;;;-0.60;99.90;;;;;;6236473;23;20213;-84
2023/01/21 00:44:56;;;;;;;19.67;11.30;;;-0.60;99.90;;;;;;6238052;23;20492;-84
2023/01/21 00:47:22;;;;;;;18.10;11.23;;;-0.70;99.90;;;;;;6239026;23;20159;-84
2023/01/21 00:49:47;;;;;;;17.55;9.68;;;-0.80;99.90;;;;;;6239641;22;21030;-82
2023/01/21 00:52:13;;;;;;;16.07;10.07;;;-0.80;99.90;;;;;;6236503;23;20234;-81
2023/01/21 00:54:38;;;;;;;17.70;10.40;;;-0.90;99.90;;;;;;6240134;23;20477;-82
2023/01/21 00:57:05;;;;;;;15.87;9.90;;;-1.00;99.90;;;;;;6237667;23;20531;-82
2023/01/21 00:59:31;;;;;;;12.55;8.98;;;-1.10;99.90;;;;;;6229726;23;20863;-81
2023/01/21 01:01:56;;;;;;;17.60;8.87;;;-1.20;99.90;;;;;;6237686;23;20221;-82
2023/01/21 01:04:22;;;;;;;17.40;9.17;;;-1.30;99.90;;;;;;6230324;23;20515;-81
2023/01/21 01:06:48;;;;;;;18.93;10.63;;;-1.40;99.90;;;;;;6235020;23;20155;-81
2023/01/21 01:09:13;;;;;;;20.73;10.77;;;-1.50;99.90;;;;;;6242936;23;20161;-80
2023/01/21 01:11:39;;;;;;;18.30;10.20;;;-1.60;99.90;;;;;;6236174;23;20180;-80
2023/01/21 01:14:05;;;;;;;21.83;12.07;;;-1.80;99.90;;;;;;6236180;23;20160;-85
2023/01/21 01:16:30;;;;;;;19.20;12.17;;;-1.80;99.90;;;;;;6233987;23;20145;-82
2023/01/21 01:18:57;;;;;;;20.70;12.50;;;-1.90;99.90;;;;;;6232341;23;20395;-81
2023/01/21 01:21:23;;;;;;;18.40;12.60;;;-1.90;99.90;;;;;;6236961;23;20392;-83
2023/01/21 01:23:53;;;;;;;24.73;11.80;;;-1.90;99.90;;;;;;6237067;23;20168;-81
2023/01/21 01:26:20;;;;;;;21.83;11.55;;;-1.80;99.90;;;;;;6235446;22;20133;-81
2023/01/21 01:28:46;;;;;;;28.70;12.52;;;-1.90;99.90;;;;;;6241741;22;20152;-83
2023/01/21 01:31:15;;;;;;;14.65;9.88;;;-1.90;99.90;;;;;;6240887;23;20154;-83
2023/01/21 01:33:40;;;;;;;14.43;9.60;;;-2.00;99.90;;;;;;6240191;23;20568;-82
2023/01/21 01:36:10;;;;;;;14.53;9.33;;;-2.20;99.90;;;;;;6239595;23;20188;-80
2023/01/21 01:38:36;;;;;;;15.70;9.60;;;-2.40;99.90;;;;;;6242025;23;20190;-80
2023/01/21 01:41:02;;;;;;;15.33;9.70;;;-2.50;99.90;;;;;;6242737;23;21204;-81
2023/01/21 01:43:48;;;;;;;15.07;8.60;;;-2.60;99.90;;;;;;6241587;23;20287;-79
2023/01/21 01:46:13;;;;;;;14.30;7.95;;;-2.60;99.90;;;;;;6239672;22;20518;-84
2023/01/21 01:48:42;;;;;;;9.90;7.43;;;-2.70;99.90;;;;;;6249990;22;20460;-81
2023/01/21 01:51:08;;;;;;;16.65;9.80;;;-2.70;99.90;;;;;;6243463;22;20155;-82
2023/01/21 01:53:36;;;;;;;11.47;8.10;;;-2.80;99.90;;;;;;6241298;23;20200;-83
2023/01/21 01:56:03;;;;;;;14.07;9.60;;;-3.00;99.90;;;;;;6238267;22;20180;-79
2023/01/21 01:58:31;;;;;;;15.20;7.90;;;-3.10;99.90;;;;;;6240058;22;20175;-81
2023/01/21 02:00:57;;;;;;;15.18;9.23;;;-3.00;99.90;;;;;;6235424;23;20179;-82
2023/01/21 02:03:44;;;;;;;12.48;8.20;;;-3.00;99.90;;;;;;6255839;22;20165;-80
2023/01/21 02:06:13;;;;;;;17.25;9.30;;;-3.20;99.90;;;;;;6242830;22;20159;-81
2023/01/21 02:08:39;;;;;;;15.20;8.55;;;-3.20;99.90;;;;;;6238495;23;20621;-81
2023/01/21 02:11:13;;;;;;;12.77;8.47;;;-3.20;99.90;;;;;;6234774;23;20152;-81
2023/01/21 02:13:41;;;;;;;15.23;7.93;;;-3.40;99.90;;;;;;6237982;22;20172;-82
2023/01/21 02:16:31;;;;;;;15.43;8.07;;;-3.50;99.90;;;;;;6236393;23;20567;-82
2023/01/21 02:18:56;;;;;;;19.65;7.75;;;-3.50;99.90;;;;;;6235343;23;20689;-82
2023/01/21 02:21:56;;;;;;;12.60;8.50;;;-3.60;99.90;;;;;;6232057;23;20198;-81
2023/01/21 02:25:09;;;;;;;13.63;8.82;;;-3.60;99.90;;;;;;6235935;23;20572;-82
2023/01/21 02:28:08;;;;;;;12.38;8.48;;;-3.70;99.90;;;;;;6235247;23;20160;-84
2023/01/21 02:30:45;;;;;;;11.77;8.18;;;-3.70;99.90;;;;;;6235718;23;20149;-85
2023/01/21 02:33:24;;;;;;;12.02;7.65;;;-3.70;99.90;;;;;;6236565;23;20192;-81
2023/01/21 02:35:59;;;;;;;21.75;10.77;;;-3.80;99.90;;;;;;6238834;22;20137;-81
2023/01/21 02:38:44;;;;;;;13.85;10.25;;;-3.70;99.90;;;;;;6241304;23;20121;-83
2023/01/21 02:41:20;;;;;;;16.77;10.45;;;-3.60;99.90;;;;;;6239384;23;20211;-83
2023/01/21 02:44:18;;;;;;;19.95;10.30;;;-3.60;99.90;;;;;;6237646;23;20171;-80
2023/01/21 02:46:57;;;;;;;14.80;8.63;;;-3.70;99.90;;;;;;6238807;22;20748;-84
2023/01/21 02:49:34;;;;;;;13.20;8.82;;;-3.70;99.90;;;;;;6239385;23;20203;-84
2023/01/21 02:52:00;;;;;;;16.40;8.32;;;-3.70;99.90;;;;;;6248598;23;20183;-82
2023/01/21 02:54:38;;;;;;;12.47;8.10;;;-3.70;99.90;;;;;;6242907;23;20168;-81
2023/01/21 02:57:05;;;;;;;13.90;8.00;;;-3.80;99.90;;;;;;6245769;23;20168;-84
2023/01/21 02:59:32;;;;;;;10.10;6.47;;;-3.80;99.90;;;;;;6249152;22;20145;-81
2023/01/21 03:02:11;;;;;;;18.63;9.68;;;-3.90;99.90;;;;;;6251666;23;20156;-83
2023/01/21 03:05:12;;;;;;;19.75;12.50;;;-3.90;99.90;;;;;;6255779;22;20186;-82
2023/01/21 03:08:17;;;;;;;15.55;7.32;;;-3.90;99.90;;;;;;6115977;23;20155;-80
2023/01/21 03:11:06;;;;;;;11.40;7.05;;;-3.80;99.90;;;;;;6236309;23;20576;-83
2023/01/21 03:19:13;;;;;;;10.55;6.70;;;-4.20;99.90;;;;;;6235661;23;20513;-83
2023/01/21 03:21:39;;;;;;;13.30;8.65;;;-4.20;99.90;;;;;;6241176;22;20245;-82
2023/01/21 03:24:07;;;;;;;22.35;10.55;;;-4.20;99.90;;;;;;6238701;23;20179;-83
2023/01/21 03:26:41;;;;;;;18.05;12.20;;;-4.20;99.90;;;;;;6235313;23;20148;-82
2023/01/21 03:29:14;;;;;;;21.67;11.30;;;-4.30;99.90;;;;;;6240930;23;20156;-82
2023/01/21 03:31:43;;;;;;;26.40;11.85;;;-4.30;99.90;;;;;;6240731;23;20207;-82
2023/01/21 03:34:12;;;;;;;22.08;9.35;;;-4.40;99.90;;;;;;6239874;23;20164;-83
2023/01/21 03:36:47;;;;;;;19.88;10.50;;;-4.40;99.90;;;;;;6241037;22;20144;-82
2023/01/21 03:39:26;;;;;;;16.33;9.80;;;-4.30;99.90;;;;;;6241212;22;20140;-81
2023/01/21 03:41:51;;;;;;;20.33;11.60;;;-4.30;99.90;;;;;;6238405;23;20506;-81
2023/01/21 03:44:17;;;;;;;25.43;15.00;;;-4.40;99.90;;;;;;6236187;23;20168;-82
2023/01/21 03:47:18;;;;;;;34.00;11.80;;;-4.30;99.90;;;;;;6241518;23;20613;-81
2023/01/21 03:49:51;;;;;;;21.60;12.20;;;-4.30;99.90;;;;;;6215809;23;20238;-82
2023/01/21 03:52:20;;;;;;;32.55;17.58;;;-4.30;99.90;;;;;;6238780;23;20677;-81
2023/01/21 03:54:47;;;;;;;25.13;15.30;;;-4.30;99.90;;;;;;6241437;22;20171;-80
2023/01/21 03:57:12;;;;;;;34.85;16.30;;;-4.20;99.90;;;;;;6241079;22;20151;-80
2023/01/21 03:59:38;;;;;;;27.23;15.30;;;-4.20;99.90;;;;;;6238556;23;20153;-80
2023/01/21 04:02:03;;;;;;;39.13;16.97;;;-4.30;99.90;;;;;;6236732;23;20156;-81
2023/01/21 04:04:29;;;;;;;40.87;18.50;;;-4.10;99.90;;;;;;6237111;23;20231;-83
2023/01/21 04:06:54;;;;;;;35.70;16.80;;;-4.10;99.90;;;;;;6237128;23;20175;-81
2023/01/21 04:09:20;;;;;;;26.07;15.57;;;-4.00;99.90;;;;;;6237834;23;20167;-81
2023/01/21 04:11:45;;;;;;;27.43;15.90;;;-4.00;99.90;;;;;;6244572;23;20184;-80
2023/01/21 04:14:11;;;;;;;39.73;19.40;;;-4.00;99.90;;;;;;6245837;23;20169;-81
2023/01/21 04:16:37;;;;;;;42.90;21.70;;;-4.00;99.90;;;;;;6248161;22;20570;-82
2023/01/21 04:19:02;;;;;;;44.30;22.60;;;-3.80;99.90;;;;;;6253704;22;20411;-82
2023/01/21 04:21:28;;;;;;;39.67;21.37;;;-3.60;99.90;;;;;;6238828;23;20160;-82
2023/01/21 04:23:53;;;;;;;44.53;23.10;;;-3.40;99.90;;;;;;6240253;23;20263;-83
2023/01/21 04:26:19;;;;;;;50.43;23.03;;;-3.20;99.90;;;;;;6240669;23;20148;-83
2023/01/21 04:28:44;;;;;;;45.33;21.17;;;-3.10;99.90;;;;;;6239402;23;20148;-83
2023/01/21 04:31:10;;;;;;;43.23;21.50;;;-3.10;99.90;;;;;;6244336;23;20149;-81
2023/01/21 04:33:35;;;;;;;46.50;21.17;;;-3.20;99.90;;;;;;6241497;23;20194;-82
2023/01/21 04:36:01;;;;;;;50.03;24.07;;;-3.20;99.90;;;;;;6242859;23;20152;-85
2023/01/21 04:38:26;;;;;;;57.80;23.30;;;-3.10;99.90;;;;;;6240027;23;20168;-84
2023/01/21 04:40:52;;;;;;;45.60;21.43;;;-3.20;99.90;;;;;;6238484;23;20653;-83
2023/01/21 04:43:18;;;;;;;59.70;25.53;;;-3.20;99.90;;;;;;6239676;23;20404;-82
2023/01/21 04:45:43;;;;;;;49.70;21.50;;;-3.10;99.90;;;;;;6238829;23;20485;-80
2023/01/21 04:48:09;;;;;;;48.60;23.27;;;-3.10;99.90;;;;;;6241926;23;20145;-81
2023/01/21 04:50:34;;;;;;;49.47;21.80;;;-3.00;99.90;;;;;;6232567;23;20153;-82
2023/01/21 04:53:00;;;;;;;46.33;22.23;;;-3.00;99.90;;;;;;6242401;23;20214;-82
2023/01/21 04:55:26;;;;;;;47.00;22.93;;;-2.90;99.90;;;;;;6248157;23;20156;-81
2023/01/21 04:57:51;;;;;;;50.43;21.23;;;-2.90;99.90;;;;;;6240799;23;20172;-83
2023/01/21 05:00:17;;;;;;;52.10;23.70;;;-3.10;99.90;;;;;;6237505;23;20496;-84
2023/01/21 05:02:43;;;;;;;47.23;21.67;;;-3.10;99.90;;;;;;6238714;23;20629;-81
2023/01/21 05:05:08;;;;;;;38.07;16.97;;;-3.00;99.90;;;;;;6236979;23;20382;-83
2023/01/21 05:07:34;;;;;;;41.53;19.27;;;-2.90;99.90;;;;;;6236940;23;20859;-80
2023/01/21 05:10:00;;;;;;;38.27;17.53;;;-2.90;99.90;;;;;;6236016;23;20226;-82
2023/01/21 05:12:27;;;;;;;35.92;17.00;;;-2.80;99.90;;;;;;6235245;23;20179;-83
2023/01/21 05:14:53;;;;;;;34.38;17.73;;;-2.90;99.90;;;;;;6234716;23;20760;-82
2023/01/21 05:17:19;;;;;;;26.48;13.50;;;-3.10;99.90;;;;;;6240145;23;20195;-84
2023/01/21 05:19:45;;;;;;;26.90;14.40;;;-3.10;99.90;;;;;;6235146;23;20164;-83
2023/01/21 05:22:10;;;;;;;37.37;15.80;;;-3.10;99.90;;;;;;6240830;23;20375;-84
2023/01/21 05:24:36;;;;;;;40.13;18.67;;;-3.00;99.90;;;;;;6239794;23;20172;-84
2023/01/21 05:27:01;;;;;;;48.33;22.83;;;-2.90;99.90;;;;;;6240344;23;20231;-81
2023/01/21 05:29:27;;;;;;;49.30;22.60;;;-2.90;99.90;;;;;;6238035;23;20310;-82
2023/01/21 05:31:52;;;;;;;26.30;14.50;;;-2.90;99.90;;;;;;6246049;22;20176;-80
2023/01/21 05:34:18;;;;;;;24.67;12.50;;;-3.00;99.90;;;;;;6249901;22;20173;-84
2023/01/21 05:36:43;;;;;;;29.13;16.53;;;-3.10;99.90;;;;;;6238631;23;20598;-83
2023/01/21 05:39:09;;;;;;;24.80;14.40;;;-3.20;99.90;;;;;;6240507;23;20239;-83
2023/01/21 05:41:34;;;;;;;27.37;10.70;;;-3.20;99.90;;;;;;6237658;23;20194;-81
2023/01/21 05:44:00;;;;;;;29.30;14.40;;;-3.10;99.90;;;;;;6236509;23;20171;-80
2023/01/21 05:46:25;;;;;;;24.57;13.20;;;-3.10;99.90;;;;;;6240560;23;20261;-84
2023/01/21 05:48:51;;;;;;;28.40;12.30;;;-3.00;99.90;;;;;;6238649;23;20595;-84
2023/01/21 05:51:16;;;;;;;28.37;13.90;;;-3.00;99.90;;;;;;6237078;23;20159;-82
2023/01/21 05:53:43;;;;;;;38.67;13.63;;;-3.00;99.90;;;;;;6239261;23;20191;-83
2023/01/21 05:56:08;;;;;;;38.92;15.80;;;-3.00;99.90;;;;;;6239434;23;20210;-81
2023/01/21 05:58:34;;;;;;;30.50;12.30;;;-3.00;99.90;;;;;;6256191;22;20153;-81
2023/01/21 06:00:59;;;;;;;27.90;12.10;;;-3.00;99.90;;;;;;6249621;22;20169;-82
2023/01/21 06:03:25;;;;;;;40.30;14.90;;;-2.90;99.90;;;;;;6243090;23;20173;-81
2023/01/21 06:05:51;;;;;;;30.20;15.77;;;-2.90;99.90;;;;;;6237845;23;20155;-81
2023/01/21 06:08:17;;;;;;;35.67;15.70;;;-2.80;99.90;;;;;;6239510;23;20240;-82
2023/01/21 06:10:43;;;;;;;29.30;14.50;;;-2.70;99.90;;;;;;6239612;23;20494;-82
2023/01/21 06:13:13;;;;;;;33.53;14.40;;;-2.60;99.90;;;;;;6238226;23;20218;-82
2023/01/21 06:15:39;;;;;;;38.15;15.60;;;-2.50;99.90;;;;;;6240278;22;20155;-81
2023/01/21 06:18:05;;;;;;;36.20;15.07;;;-2.50;99.90;;;;;;6239268;23;20164;-84
2023/01/21 06:20:31;;;;;;;28.30;14.30;;;-2.50;99.90;;;;;;6238554;22;20227;-83
2023/01/21 06:22:57;;;;;;;33.50;17.50;;;-2.40;99.90;;;;;;6239502;23;20208;-82
2023/01/21 06:25:24;;;;;;;35.97;14.15;;;-2.40;99.90;;;;;;6232041;23;20383;-82
2023/01/21 06:27:49;;;;;;;35.88;17.33;;;-2.30;99.90;;;;;;6238602;23;20649;-83
2023/01/21 06:30:15;;;;;;;35.73;15.13;;;-2.30;99.90;;;;;;6243888;23;20749;-82
2023/01/21 06:32:41;;;;;;;41.10;16.00;;;-2.30;99.90;;;;;;6239966;23;20181;-84
2023/01/21 06:35:07;;;;;;;32.47;14.60;;;-2.30;99.90;;;;;;6235667;23;20791;-82
2023/01/21 06:37:33;;;;;;;24.42;12.40;;;-2.20;99.90;;;;;;6240574;23;20682;-83
2023/01/21 06:39:58;;;;;;;32.90;12.80;;;-2.30;99.90;;;;;;6242429;22;20148;-81
2023/01/21 06:42:24;;;;;;;33.83;14.30;;;-2.30;99.90;;;;;;6242983;23;20231;-82
2023/01/21 06:44:49;;;;;;;27.90;12.40;;;-2.40;99.90;;;;;;6239455;23;20210;-84
2023/01/21 06:47:15;;;;;;;29.23;13.13;;;-2.40;99.90;;;;;;6255300;22;20212;-80
2023/01/21 06:49:40;;;;;;;38.93;15.60;;;-2.40;99.90;;;;;;6255776;22;20493;-81
2023/01/21 06:52:06;;;;;;;26.83;14.37;;;-2.40;99.90;;;;;;6252133;22;20862;-81
2023/01/21 06:54:32;;;;;;;29.30;13.87;;;-2.40;99.90;;;;;;6246028;23;20260;-81
2023/01/21 06:56:57;;;;;;;34.93;14.20;;;-2.30;99.90;;;;;;6243816;23;20144;-82
2023/01/21 06:59:23;;;;;;;36.50;16.47;;;-2.30;99.90;;;;;;6238562;23;20160;-83
2023/01/21 07:01:49;;;;;;;31.53;15.23;;;-2.30;99.90;;;;;;6238826;23;20467;-83
2023/01/21 07:04:14;;;;;;;38.90;14.60;;;-2.20;99.90;;;;;;6239859;23;20173;-81
2023/01/21 07:06:40;;;;;;;37.33;14.97;;;-2.20;99.90;;;;;;6235439;23;20218;-82
2023/01/21 07:09:06;;;;;;;28.00;13.70;;;-2.10;99.90;;;;;;6238721;23;20218;-82
2023/01/21 07:11:32;;;;;;;38.40;15.75;;;-2.20;99.90;;;;;;6235655;23;20156;-85
2023/01/21 07:13:58;;;;;;;40.37;15.97;;;-2.10;99.90;;;;;;6233949;23;20275;-82
2023/01/21 07:16:23;;;;;;;31.17;15.10;;;-2.20;99.90;;;;;;6236168;23;20414;-83
2023/01/21 07:18:49;;;;;;;46.77;19.83;;;-2.10;99.90;;;;;;6235432;23;20505;-83
2023/01/21 07:21:15;;;;;;;37.63;17.77;;;-2.00;99.90;;;;;;6237908;23;20250;-82
2023/01/21 07:23:40;;;;;;;39.30;15.60;;;-1.90;99.90;;;;;;6236891;23;20246;-84
2023/01/21 07:26:06;;;;;;;34.80;16.20;;;-1.90;99.90;;;;;;6236789;23;20261;-81
2023/01/21 07:28:32;;;;;;;43.37;19.23;;;-1.90;99.90;;;;;;6237736;23;20148;-84
2023/01/21 07:31:02;;;;;;;42.00;17.17;;;-1.90;99.90;;;;;;6242151;23;20379;-82
2023/01/21 07:33:28;;;;;;;38.95;17.40;;;-1.80;99.90;;;;;;6241811;23;20188;-84
2023/01/21 07:35:54;;;;;;;34.73;16.90;;;-1.80;99.90;;;;;;6242113;22;20160;-83
2023/01/21 07:38:20;;;;;;;32.70;16.13;;;-1.90;99.90;;;;;;6240072;23;20375;-84
2023/01/21 07:40:49;;;;;;;35.30;18.70;;;-1.90;99.90;;;;;;6239548;23;21205;-83
2023/01/21 07:43:16;;;;;;;37.38;19.30;;;-1.90;99.90;;;;;;6239124;23;20404;-82
2023/01/21 07:45:42;;;;;;;35.53;16.10;;;-1.80;99.90;;;;;;6239229;23;20236;-86
2023/01/21 07:48:08;;;;;;;36.15;14.95;;;-1.80;99.90;;;;;;6240827;22;20215;-85
2023/01/21 07:50:36;;;;;;;43.50;19.35;;;-1.60;99.90;;;;;;6239605;22;20156;-83
2023/01/21 07:53:03;;;;;;;33.60;15.02;;;-1.60;99.90;;;;;;6241504;22;20183;-83
2023/01/21 07:55:29;;;;;;;27.55;12.80;;;-1.60;99.90;;;;;;6239145;22;20153;-82
2023/01/21 07:57:55;;;;;;;33.03;15.63;;;-1.60;99.90;;;;;;6243146;22;20174;-84
2023/01/21 08:00:22;;;;;;;35.13;18.75;;;-1.50;99.90;;;;;;6239547;23;20156;-83
2023/01/21 08:02:52;;;;;;;36.08;15.27;;;-1.50;99.90;;;;;;6255548;22;20168;-84
2023/01/21 08:05:18;;;;;;;30.75;15.80;;;-1.30;99.90;;;;;;6240721;23;20168;-83
2023/01/21 08:07:43;;;;;;;34.47;14.83;;;-1.30;99.90;;;;;;6240571;22;20553;-82
2023/01/21 08:10:09;;;;;;;28.07;14.23;;;-1.30;99.90;;;;;;6246523;23;20156;-84
2023/01/21 08:12:35;;;;;;;34.27;14.87;;;-1.20;99.90;;;;;;6239691;23;20522;-84
2023/01/21 08:15:00;;;;;;;26.70;12.67;;;-1.10;99.90;;;;;;6248358;23;20390;-83
2023/01/21 08:17:26;;;;;;;26.53;15.10;;;-1.00;99.90;;;;;;6240308;23;20172;-83
2023/01/21 08:19:51;;;;;;;31.97;13.17;;;-0.90;99.90;;;;;;6237506;23;20140;-83
2023/01/21 08:22:17;;;;;;;25.23;13.43;;;-0.90;99.90;;;;;;6242816;23;20157;-82
2023/01/21 08:24:42;;;;;;;23.13;12.73;;;-0.80;99.90;;;;;;6241280;23;20192;-85
2023/01/21 08:27:08;;;;;;;20.67;10.67;;;-0.60;99.90;;;;;;6237375;23;20149;-84
2023/01/21 08:29:33;;;;;;;32.17;16.27;;;-0.60;99.90;;;;;;6238405;23;20147;-82
2023/01/21 08:31:59;;;;;;;26.50;14.30;;;-0.40;99.90;;;;;;6238071;23;21073;-84
2023/01/21 08:34:24;;;;;;;27.77;13.30;;;-0.20;99.90;;;;;;6238909;23;20275;-84
2023/01/21 08:36:50;;;;;;;32.00;13.27;;;0.00;99.90;;;;;;6236665;23;20153;-81
2023/01/21 08:39:16;;;;;;;21.07;11.60;;;0.20;99.90;;;;;;6239712;23;20140;-83
2023/01/21 08:41:43;;;;;;;27.00;12.43;;;0.50;99.90;;;;;;6238466;23;20164;-82
2023/01/21 08:44:08;;;;;;;30.77;13.35;;;0.60;99.90;;;;;;6241682;23;20172;-82
2023/01/21 08:46:34;;;;;;;27.10;13.60;;;0.80;99.90;;;;;;6252406;23;20480;-84
2023/01/21 08:48:59;;;;;;;28.13;13.57;;;0.70;99.90;;;;;;6244117;23;20149;-84
2023/01/21 08:51:25;;;;;;;24.63;14.30;;;0.50;99.90;;;;;;6239631;23;20148;-83
2023/01/21 08:53:52;;;;;;;27.60;15.30;;;0.50;99.90;;;;;;6243389;23;20172;-81
2023/01/21 08:56:18;;;;;;;23.63;13.50;;;0.40;99.90;;;;;;6252988;23;20176;-83
2023/01/21 08:58:44;;;;;;;28.47;13.50;;;0.20;99.90;;;;;;6253241;22;20144;-83
2023/01/21 09:01:12;;;;;;;30.73;13.40;;;0.10;99.90;;;;;;6255111;23;20383;-81
2023/01/21 09:03:37;;;;;;;24.05;12.20;;;0.00;99.90;;;;;;6256982;23;20196;-82
2023/01/21 09:06:04;;;;;;;29.53;13.90;;;0.00;99.90;;;;;;6256405;23;20172;-80
2023/01/21 09:08:31;;;;;;;26.33;15.20;;;0.00;99.90;;;;;;6257751;23;20156;-80
2023/01/21 09:11:00;;;;;;;30.30;12.18;;;0.20;99.90;;;;;;6259499;23;20210;-82
2023/01/21 09:13:35;;;;;;;23.05;11.35;;;0.50;99.90;;;;;;6256549;23;20253;-82
2023/01/21 09:16:02;;;;;;;30.63;13.70;;;0.50;99.90;;;;;;6260837;22;20156;-82
2023/01/21 09:18:27;;;;;;;27.38;12.77;;;0.40;99.90;;;;;;6253008;22;20559;-84
2023/01/21 09:20:58;;;;;;;25.27;13.00;;;0.40;99.90;;;;;;6245418;23;20144;-83
2023/01/21 09:23:24;;;;;;;26.48;14.70;;;0.60;99.90;;;;;;6246286;22;20248;-82
2023/01/21 09:26:02;;;;;;;27.13;13.57;;;0.50;99.90;;;;;;6242542;23;20156;-80
2023/01/21 09:28:29;;;;;;;24.05;12.73;;;0.80;99.90;;;;;;6244625;23;20228;-83
2023/01/21 09:31:01;;;;;;;31.95;12.82;;;0.70;99.90;;;;;;6240030;23;20630;-84
2023/01/21 09:33:28;;;;;;;22.85;13.30;;;1.00;99.90;;;;;;6240250;23;20188;-83
2023/01/21 09:36:00;;;;;;;24.90;14.52;;;1.20;99.90;;;;;;6249664;22;20140;-85
2023/01/21 09:38:27;;;;;;;22.33;12.88;;;1.20;99.90;;;;;;6238612;23;20152;-84
2023/01/21 09:40:53;;;;;;;22.92;11.60;;;1.20;99.90;;;;;;6238300;22;20210;-84
2023/01/21 09:43:26;;;;;;;25.30;11.52;;;1.10;99.90;;;;;;6240668;22;20234;-82
2023/01/21 09:45:57;;;;;;;28.15;14.73;;;1.00;99.90;;;;;;6235988;22;20147;-83
2023/01/21 09:48:31;;;;;;;24.00;12.73;;;0.80;99.90;;;;;;6248317;22;20144;-82
2023/01/21 09:51:01;;;;;;;26.85;13.77;;;0.50;99.90;;;;;;6248240;22;20162;-81
2023/01/21 09:53:36;;;;;;;27.20;13.07;;;0.40;99.90;;;;;;6243088;22;20188;-83
2023/01/21 09:56:06;;;;;;;27.77;13.60;;;0.60;99.90;;;;;;6234544;23;20153;-83
2023/01/21 09:59:02;;;;;;;28.00;14.43;;;1.00;99.90;;;;;;6236159;22;20482;-82
2023/01/21 10:01:35;;;;;;;22.20;13.10;;;1.00;99.90;;;;;;6232505;23;20664;-83
2023/01/21 10:04:31;;;;;;;23.85;12.38;;;1.00;99.90;;;;;;6233604;23;20778;-83
2023/01/21 10:07:30;;;;;;;21.67;11.80;;;1.30;99.90;;;;;;6233124;23;20273;-82
2023/01/21 10:10:25;;;;;;;29.98;13.10;;;1.10;99.90;;;;;;6226521;23;20221;-81
2023/01/21 10:13:12;;;;;;;29.27;13.43;;;1.30;99.90;;;;;;6167098;23;20188;-85
2023/01/21 10:15:43;;;;;;;34.15;12.98;;;1.40;99.90;;;;;;6233460;23;20160;-82
2023/01/21 10:18:15;;;;;;;25.52;12.57;;;1.50;99.90;;;;;;6236192;23;20247;-83
2023/01/21 10:20:53;;;;;;;25.33;11.85;;;1.90;99.90;;;;;;6236077;23;20181;-80
2023/01/21 10:23:42;;;;;;;22.42;12.63;;;2.00;99.90;;;;;;6237619;22;20160;-83
2023/01/21 10:26:11;;;;;;;26.67;12.82;;;2.00;99.90;;;;;;6236290;23;20143;-83
2023/01/21 10:28:40;;;;;;;23.13;11.40;;;2.00;99.90;;;;;;6236751;23;20144;-83
2023/01/21 10:31:24;;;;;;;22.95;10.80;;;1.80;99.90;;;;;;6239593;22;20232;-81
2023/01/21 10:33:51;;;;;;;15.68;10.13;;;1.70;99.90;;;;;;6232561;22;20189;-84
2023/01/21 10:36:22;;;;;;;14.48;10.38;;;1.40;99.90;;;;;;6245151;22;20140;-80
2023/01/21 10:39:05;;;;;;;18.88;9.55;;;1.40;99.90;;;;;;6235215;23;20191;-80
2023/01/21 10:41:52;;;;;;;18.75;10.95;;;1.50;99.90;;;;;;6246087;23;20150;-83
2023/01/21 10:44:27;;;;;;;22.92;12.80;;;1.50;99.90;;;;;;6239036;23;20275;-80
2023/01/21 10:47:04;;;;;;;22.40;11.73;;;1.50;99.90;;;;;;6234971;23;20144;-82
2023/01/21 10:49:43;;;;;;;25.08;12.57;;;1.50;99.90;;;;;;6229836;23;20272;-84
2023/01/21 10:52:14;;;;;;;21.05;10.25;;;1.50;99.90;;;;;;6228777;23;20861;-80
2023/01/21 10:54:46;;;;;;;22.65;9.52;;;1.70;99.90;;;;;;6235301;23;20198;-82
2023/01/21 10:57:12;;;;;;;18.08;11.60;;;1.30;99.90;;;;;;6234806;23;20151;-80
2023/01/21 10:59:40;;;;;;;22.13;12.20;;;1.40;99.90;;;;;;6231145;23;20232;-82
2023/01/21 11:02:08;;;;;;;21.60;11.02;;;1.20;99.90;;;;;;6238420;22;20266;-82
2023/01/21 11:04:39;;;;;;;20.85;10.57;;;1.10;99.90;;;;;;6230848;23;20249;-81
2023/01/21 11:07:07;;;;;;;24.58;14.38;;;1.00;99.90;;;;;;6233230;22;20544;-81
2023/01/21 11:09:41;;;;;;;21.58;10.80;;;1.00;99.90;;;;;;6237586;22;20159;-81
2023/01/21 11:12:12;;;;;;;19.70;11.43;;;1.00;99.90;;;;;;6234913;22;20168;-81
2023/01/21 11:14:38;;;;;;;26.55;12.95;;;0.90;99.90;;;;;;6232231;22;20164;-82
2023/01/21 11:17:04;;;;;;;27.50;11.80;;;1.00;99.90;;;;;;6228516;23;20176;-82
2023/01/21 11:19:30;;;;;;;19.52;12.25;;;1.10;99.90;;;;;;6231816;23;20145;-84
2023/01/21 11:22:00;;;;;;;24.60;13.40;;;1.30;99.90;;;;;;6232420;23;20172;-81
2023/01/21 11:24:26;;;;;;;20.23;10.32;;;1.40;99.90;;;;;;6227740;23;20240;-81
2023/01/21 11:26:58;;;;;;;22.52;12.20;;;1.30;99.90;;;;;;6228397;23;20221;-83
2023/01/21 11:29:25;;;;;;;23.85;11.10;;;1.20;99.90;;;;;;6234008;22;20137;-82
2023/01/21 11:32:14;;;;;;;23.20;11.82;;;1.10;99.90;;;;;;6230840;23;20966;-83
2023/01/21 11:34:50;;;;;;;28.23;12.20;;;0.90;99.90;;;;;;6227992;23;20238;-81
2023/01/21 11:37:20;;;;;;;24.30;11.63;;;0.60;99.90;;;;;;6228341;23;20590;-79
2023/01/21 11:40:07;;;;;;;25.45;13.98;;;0.60;99.90;;;;;;6231825;23;20145;-84
2023/01/21 11:42:46;;;;;;;25.23;14.32;;;0.80;99.90;;;;;;6228278;23;20148;-79
2023/01/21 11:45:30;;;;;;;23.00;13.48;;;0.80;99.90;;;;;;6227634;23;20149;-80
2023/01/21 11:47:56;;;;;;;20.13;11.98;;;0.60;99.90;;;;;;6227472;23;20243;-82
2023/01/21 11:50:27;;;;;;;19.45;11.80;;;0.40;99.90;;;;;;6234541;22;20140;-81
2023/01/21 11:53:16;;;;;;;27.27;12.02;;;0.40;99.90;;;;;;6243371;23;20184;-82
2023/01/21 11:55:49;;;;;;;21.55;10.98;;;0.30;99.90;;;;;;6231802;23;20527;-83
2023/01/21 11:58:23;;;;;;;20.30;10.70;;;0.10;99.90;;;;;;6228535;23;20232;-84
2023/01/21 12:00:52;;;;;;;21.73;11.55;;;0.10;99.90;;;;;;6232959;23;20140;-82
2023/01/21 12:03:22;;;;;;;20.73;11.68;;;0.10;99.90;;;;;;6240243;22;20173;-82
2023/01/21 12:05:49;;;;;;;27.27;10.73;;;0.10;99.90;;;;;;6242557;22;20413;-83
2023/01/21 12:08:33;;;;;;;23.05;11.18;;;0.10;99.90;;;;;;6233198;22;21024;-83
2023/01/21 12:11:03;;;;;;;21.63;10.57;;;0.10;99.90;;;;;;6230143;23;20222;-82
2023/01/21 12:13:54;;;;;;;26.17;11.93;;;0.10;99.90;;;;;;6234843;23;20188;-82
2023/01/21 12:16:31;;;;;;;25.90;10.80;;;0.00;99.90;;;;;;6232113;22;20136;-80
2023/01/21 12:19:15;;;;;;;21.65;10.20;;;0.00;99.90;;;;;;6229755;23;20255;-84
2023/01/21 12:22:15;;;;;;;27.17;10.35;;;0.10;99.90;;;;;;6224318;23;20175;-80
2023/01/21 12:24:46;;;;;;;19.23;11.13;;;0.20;99.90;;;;;;6231835;23;20204;-85
2023/01/21 12:27:41;;;;;;;16.52;9.48;;;0.20;99.90;;;;;;6232596;23;20135;-83
2023/01/21 12:30:15;;;;;;;25.20;10.15;;;0.30;99.90;;;;;;6232742;23;20151;-82
2023/01/21 12:33:04;;;;;;;23.88;10.57;;;0.50;99.90;;;;;;6244812;23;20179;-84
2023/01/21 12:35:38;;;;;;;21.15;11.23;;;0.80;99.90;;;;;;6255440;22;20950;-83
2023/01/21 12:38:14;;;;;;;25.65;11.63;;;0.90;99.90;;;;;;6233105;23;20140;-82
2023/01/21 12:40:55;;;;;;;14.85;8.65;;;0.80;99.90;;;;;;6231006;23;20141;-85
2023/01/21 12:43:25;;;;;;;22.45;10.70;;;1.00;99.90;;;;;;6228042;23;20183;-81
2023/01/21 12:46:01;;;;;;;17.30;9.52;;;0.60;99.90;;;;;;6230749;22;20264;-85
2023/01/21 12:48:34;;;;;;;19.35;10.35;;;0.50;99.90;;;;;;6231941;23;20180;-80
2023/01/21 12:51:09;;;;;;;18.60;9.35;;;0.20;99.90;;;;;;6231022;22;20233;-80